Time;durP1;ratioP1;P1;durP2;ratioP2;P2;SDS_P1;SDS_P2;PMS_P1;PMS_P2;Temp;Humidity;BMP_temperature;BMP_pressure;BME280_temperature;BME280_humidity;BME280_pressure;Samples;Min_cycle;Max_cycle;Signal;HPM_P1;HPM_P2
2021/12/24 00:03:13;;;;;;;15.70;9.50;;;;;;;6.76;82.05;99788.91;20776912;28;20044;-69
2021/12/24 00:13:16;;;;;;;18.50;10.18;;;;;;;6.76;81.89;99784.56;20778145;28;20481;-69
2021/12/24 00:43:43;;;;;;;21.48;10.98;;;;;;;6.80;82.87;99778.41;20774758;28;20721;-69
2021/12/24 01:03:46;;;;;;;20.48;9.93;;;;;;;6.84;82.50;99758.44;20782498;28;20046;-68
2021/12/24 01:13:47;;;;;;;19.13;9.75;;;;;;;6.89;82.38;99744.50;20790120;28;20050;-68
2021/12/24 01:24:03;;;;;;;17.15;9.80;;;;;;;6.88;82.91;99763.59;20790250;28;20419;-66
2021/12/24 01:44:28;;;;;;;22.00;10.73;;;;;;;6.77;83.57;99788.88;20787700;28;19932;-66
2021/12/24 01:54:30;;;;;;;21.60;11.18;;;;;;;6.79;83.82;99783.66;20788416;28;20499;-66
2021/12/24 02:04:31;;;;;;;28.83;13.88;;;;;;;6.82;83.81;99765.41;20784847;28;20045;-67
2021/12/24 02:14:37;;;;;;;17.80;10.43;;;;;;;6.78;84.14;99767.19;20786387;28;20057;-67
2021/12/24 02:34:58;;;;;;;19.55;10.18;;;;;;;6.94;84.55;99721.88;20784335;28;20050;-66
2021/12/24 02:44:59;;;;;;;20.75;10.77;;;;;;;7.12;84.46;99699.97;20784015;28;20553;-66
2021/12/24 02:55:02;;;;;;;19.40;10.07;;;;;;;7.23;84.04;99707.63;20781924;28;20081;-66
2021/12/24 03:05:05;;;;;;;17.10;7.85;;;;;;;7.39;83.95;99706.56;20783064;28;20723;-66
2021/12/24 03:15:07;;;;;;;12.02;7.47;;;;;;;7.56;84.38;99700.25;20779541;28;20049;-67
2021/12/24 03:25:09;;;;;;;13.52;7.75;;;;;;;7.73;83.41;99685.22;20774955;28;20077;-66
2021/12/24 03:35:10;;;;;;;12.88;7.95;;;;;;;7.60;84.39;99670.66;20780581;28;20472;-67
2021/12/24 03:45:26;;;;;;;16.17;8.95;;;;;;;7.61;84.78;99661.97;20777938;28;20095;-66
2021/12/24 03:55:28;;;;;;;14.50;8.20;;;;;;;7.63;84.29;99660.22;20773379;28;20069;-66
2021/12/24 04:05:30;;;;;;;18.88;9.68;;;;;;;7.56;85.03;99661.16;20772255;28;20071;-67
2021/12/24 04:15:31;;;;;;;13.20;7.68;;;;;;;7.42;86.73;99664.84;20777545;28;20095;-66
2021/12/24 04:25:33;;;;;;;14.32;7.05;;;;;;;7.42;86.53;99666.59;20775607;28;20053;-66
2021/12/24 05:16:37;;;;;;;16.40;7.78;;;;;;;7.30;85.89;99640.72;20774834;28;20418;-67
2021/12/24 05:26:40;;;;;;;17.30;8.35;;;;;;;7.30;85.46;99641.59;20775570;28;20050;-66
2021/12/24 05:36:42;;;;;;;16.02;8.10;;;;;;;7.32;85.34;99639.81;20772140;28;20050;-66
2021/12/24 05:46:45;;;;;;;12.93;7.28;;;;;;;7.46;84.73;99637.88;20776893;28;20049;-66
2021/12/24 05:56:47;;;;;;;15.15;8.00;;;;;;;7.37;86.43;99622.38;20787270;28;20099;-67
2021/12/24 06:06:48;;;;;;;12.32;6.93;;;;;;;7.42;86.52;99649.22;20786027;28;20100;-66
2021/12/24 06:17:00;;;;;;;15.52;6.80;;;;;;;7.49;86.67;99641.31;20786728;28;20053;-67
2021/12/24 06:27:07;;;;;;;13.73;7.05;;;;;;;7.49;86.12;99636.97;20786598;28;20046;-67
2021/12/24 06:37:09;;;;;;;13.25;6.93;;;;;;;7.52;86.14;99654.28;20783519;28;20753;-67
2021/12/24 06:47:10;;;;;;;19.27;10.27;;;;;;;7.63;85.19;99660.22;20783403;28;20474;-67
2021/12/24 06:57:15;;;;;;;13.23;7.82;;;;;;;7.59;86.67;99640.28;20783132;28;20508;-67
2021/12/24 07:07:17;;;;;;;;;;;;;;;7.68;86.35;99646.22;20781189;28;20092;-68
2021/12/24 07:17:19;;;;;;;12.40;6.90;;;;;;;7.76;86.02;99659.13;20782427;28;19921;-68
2021/12/24 07:27:21;;;;;;;15.38;7.65;;;;;;;7.71;86.52;99650.50;20779160;28;20088;-68
2021/12/24 07:37:24;;;;;;;14.13;6.55;;;;;;;7.62;86.99;99632.44;20773458;28;20050;-68
2021/12/24 07:47:28;;;;;;;17.75;6.95;;;;;;;7.62;87.10;99627.22;20780545;28;20045;-69
2021/12/24 07:57:29;;;;;;;12.05;6.68;;;;;;;7.51;87.48;99614.34;20777246;28;20053;-68
2021/12/24 08:07:31;;;;;;;11.35;5.97;;;;;;;7.56;87.51;99628.16;20760793;28;20080;-69
2021/12/24 08:17:34;;;;;;;13.43;6.93;;;;;;;7.61;87.65;99625.47;20771610;28;20061;-69
2021/12/24 08:27:38;;;;;;;10.98;7.00;;;;;;;7.59;88.29;99633.34;20766313;28;20056;-69
2021/12/24 08:37:40;;;;;;;15.63;7.27;;;;;;;7.80;87.22;99639.94;20767282;28;20049;-68
2021/12/24 08:47:42;;;;;;;15.65;7.53;;;;;;;7.76;87.33;99630.47;20768337;28;20054;-69
2021/12/24 08:57:44;;;;;;;17.85;9.38;;;;;;;7.74;89.94;99657.41;20770124;28;20050;-69
2021/12/24 09:07:45;;;;;;;11.55;6.55;;;;;;;7.72;89.63;99639.22;20766092;28;20057;-69
2021/12/24 09:17:47;;;;;;;19.67;7.63;;;;;;;7.64;91.07;99641.06;20766682;28;20096;-69
2021/12/24 09:27:50;;;;;;;14.98;8.00;;;;;;;7.74;92.29;99626.16;20782570;28;20062;-68
2021/12/24 09:37:52;;;;;;;18.60;8.65;;;;;;;7.77;92.26;99626.13;20781102;28;20049;-69
2021/12/24 09:47:54;;;;;;;13.55;8.60;;;;;;;7.70;93.30;99625.34;20781945;28;20050;-69
2021/12/24 09:57:56;;;;;;;16.05;8.88;;;;;;;7.58;94.99;99630.75;20781419;28;20486;-68
2021/12/24 10:07:59;;;;;;;16.15;9.25;;;;;;;7.59;95.22;99642.91;20779215;28;20115;-69
2021/12/24 10:18:01;;;;;;;19.63;9.50;;;;;;;7.39;97.39;99622.38;20776245;28;20057;-69
2021/12/24 10:28:10;;;;;;;18.15;9.43;;;;;;;7.37;97.85;99627.59;20779972;28;20107;-69
2021/12/24 10:38:13;;;;;;;16.40;9.30;;;;;;;7.41;98.18;99613.63;20772165;28;20076;-71
2021/12/24 10:48:20;;;;;;;15.38;8.90;;;;;;;7.31;99.88;99606.84;20778341;28;20069;-70
2021/12/24 10:58:24;;;;;;;15.38;9.13;;;;;;;7.25;100.00;99595.69;20775922;28;20120;-72
2021/12/24 11:08:27;;;;;;;22.65;11.00;;;;;;;7.13;100.00;99600.16;20777245;28;20057;-72
2021/12/24 11:18:43;;;;;;;21.05;11.75;;;;;;;7.13;100.00;99594.09;20772785;28;20061;-72
2021/12/24 11:28:45;;;;;;;16.67;9.73;;;;;;;7.09;100.00;99584.63;20772278;28;20058;-72
2021/12/24 11:38:58;;;;;;;14.50;9.45;;;;;;;7.10;100.00;99575.94;20773921;28;20517;-72
2021/12/24 11:48:59;;;;;;;22.27;10.05;;;;;;;7.20;100.00;99546.28;20772342;28;20053;-72
2021/12/24 11:59:01;;;;;;;15.30;10.05;;;;;;;7.29;100.00;99527.91;20772090;28;20064;-72
2021/12/24 12:09:07;;;;;;;16.45;9.68;;;;;;;7.63;100.00;99511.72;20770012;28;20050;-72
2021/12/24 12:29:26;;;;;;;17.15;9.73;;;;;;;7.57;100.00;99503.97;20769872;28;20469;-72
2021/12/24 12:39:28;;;;;;;15.98;10.10;;;;;;;7.76;100.00;99497.56;20769677;28;20046;-72
2021/12/24 12:49:32;;;;;;;16.33;9.48;;;;;;;7.68;100.00;99471.66;20769338;28;20460;-72
2021/12/24 12:59:34;;;;;;;17.07;10.57;;;;;;;7.70;100.00;99463.78;20778014;28;20104;-73
2021/12/24 13:09:36;;;;;;;16.13;9.70;;;;;;;7.71;100.00;99461.19;20784653;28;20049;-73
2021/12/24 13:30:04;;;;;;;15.65;9.30;;;;;;;7.77;100.00;99460.19;20784409;28;20061;-74
2021/12/24 13:40:09;;;;;;;18.02;10.73;;;;;;;7.83;100.00;99449.66;20781884;28;20076;-73
2021/12/24 14:00:25;;;;;;;17.75;11.65;;;;;;;8.14;100.00;99429.00;20778985;28;20115;-73
2021/12/24 14:10:26;;;;;;;22.35;13.43;;;;;;;8.11;100.00;99428.22;20773565;28;20053;-72
2021/12/24 14:20:58;;;;;;;17.17;10.32;;;;;;;7.97;100.00;99445.00;20778245;28;20057;-73
2021/12/24 14:31:02;;;;;;;20.33;12.32;;;;;;;7.96;100.00;99450.28;20777873;28;20053;-74
2021/12/24 14:41:04;;;;;;;17.75;11.02;;;;;;;7.85;100.00;99442.63;20779642;28;20042;-73
2021/12/24 14:51:08;;;;;;;21.90;13.85;;;;;;;7.88;100.00;99436.53;20778548;28;20049;-73
2021/12/24 15:01:10;;;;;;;17.88;11.77;;;;;;;7.91;100.00;99421.69;20777416;28;20046;-74
2021/12/24 15:11:17;;;;;;;20.67;12.02;;;;;;;7.88;100.00;99418.28;20774369;28;20049;-76
2021/12/24 15:21:20;;;;;;;24.17;15.52;;;;;;;7.84;100.00;99425.28;20774692;28;20515;-75
2021/12/24 15:31:23;;;;;;;25.00;15.75;;;;;;;7.82;100.00;99416.66;20775846;28;20107;-74
2021/12/24 15:41:25;;;;;;;24.48;15.40;;;;;;;7.74;100.00;99418.56;20772463;28;20096;-74
2021/12/24 15:51:27;;;;;;;21.77;13.68;;;;;;;7.77;100.00;99418.50;20774032;28;20431;-75
2021/12/24 16:01:28;;;;;;;30.98;20.27;;;;;;;7.82;100.00;99421.03;20832613;23;20063;-73
2021/12/24 16:11:30;;;;;;;20.80;12.93;;;;;;;7.85;100.00;99427.00;20868746;28;20052;-73
2021/12/24 16:21:32;;;;;;;22.05;13.75;;;;;;;7.80;100.00;99417.56;20851248;28;20421;-72
2021/12/24 16:31:33;;;;;;;26.17;14.82;;;;;;;7.79;100.00;99413.25;20848953;28;20049;-72
2021/12/24 16:41:35;;;;;;;28.13;17.25;;;;;;;7.79;100.00;99416.72;20851729;28;20053;-72
2021/12/24 16:51:37;;;;;;;24.13;16.60;;;;;;;7.71;100.00;99405.56;20852240;28;20502;-72
2021/12/24 17:01:38;;;;;;;28.83;17.58;;;;;;;7.74;100.00;99400.31;20849305;28;20087;-72
2021/12/24 17:11:40;;;;;;;30.60;18.75;;;;;;;7.76;100.00;99395.06;20852661;28;20502;-72
2021/12/24 17:21:43;;;;;;;31.25;20.23;;;;;;;7.71;100.00;99384.72;20848818;28;20552;-72
2021/12/24 17:31:44;;;;;;;39.08;24.42;;;;;;;7.82;100.00;99374.13;20851368;28;20094;-72
2021/12/24 17:41:46;;;;;;;31.38;19.00;;;;;;;7.62;100.00;99377.13;20850366;28;20048;-72
2021/12/24 17:51:49;;;;;;;28.23;18.25;;;;;;;7.66;100.00;99365.72;20864227;28;20053;-72
2021/12/24 18:01:51;;;;;;;32.35;20.17;;;;;;;7.56;100.00;99369.41;20862357;28;20045;-71
2021/12/24 18:11:53;;;;;;;29.63;18.58;;;;;;;7.61;100.00;99350.19;20862959;28;20107;-73
2021/12/24 18:21:54;;;;;;;33.70;19.58;;;;;;;7.67;100.00;99344.03;20862498;28;20045;-72
2021/12/24 18:31:56;;;;;;;34.83;20.35;;;;;;;7.61;100.00;99359.75;20859572;28;20053;-71
2021/12/24 18:41:57;;;;;;;27.65;16.33;;;;;;;7.72;100.00;99376.91;20861765;28;20056;-72
2021/12/24 18:52:01;;;;;;;24.73;14.43;;;;;;;7.82;100.00;99374.97;20857145;28;20418;-71
2021/12/24 19:02:04;;;;;;;22.77;14.50;;;;;;;7.82;100.00;99376.72;20859185;28;20049;-72
2021/12/24 19:12:06;;;;;;;22.88;13.70;;;;;;;7.82;100.00;99367.16;20860432;28;20621;-71
2021/12/24 19:22:08;;;;;;;25.20;15.48;;;;;;;7.85;100.00;99374.03;20858325;28;20044;-71
2021/12/24 19:32:11;;;;;;;24.25;15.50;;;;;;;7.90;100.00;99380.00;20858495;28;20542;-71
2021/12/24 19:42:12;;;;;;;21.92;14.07;;;;;;;7.92;100.00;99368.66;20854890;28;20060;-72
2021/12/24 19:52:14;;;;;;;22.98;13.82;;;;;;;7.74;100.00;99362.97;20855519;28;20053;-72
2021/12/24 20:02:20;;;;;;;25.42;15.65;;;;;;;7.80;100.00;99371.53;20852797;28;20049;-73
2021/12/24 20:12:22;;;;;;;25.45;14.98;;;;;;;7.74;100.00;99378.63;20857994;28;20565;-77
2021/12/24 20:22:23;;;;;;;27.13;16.30;;;;;;;7.78;100.00;99375.91;20854439;28;20091;-73
2021/12/24 20:32:25;;;;;;;32.00;17.00;;;;;;;7.79;100.00;99369.81;20849742;28;20517;-71
2021/12/24 20:42:26;;;;;;;27.80;17.88;;;;;;;7.72;100.00;99366.50;20852438;28;20502;-74
2021/12/24 20:52:28;;;;;;;31.02;18.88;;;;;;;7.77;100.00;99355.13;20850680;28;20631;-74
2021/12/24 21:02:30;;;;;;;28.75;16.70;;;;;;;7.72;100.00;99366.50;20850478;28;20053;-70
2021/12/24 21:12:32;;;;;;;30.73;17.92;;;;;;;7.82;100.00;99359.34;20854687;28;20053;-71
2021/12/24 21:22:34;;;;;;;25.75;15.52;;;;;;;7.85;100.00;99354.03;20864676;28;20122;-70
2021/12/24 21:32:36;;;;;;;27.20;14.23;;;;;;;7.85;100.00;99358.38;20862929;28;20050;-70
2021/12/24 21:42:38;;;;;;;20.20;12.82;;;;;;;7.82;100.00;99346.31;20861999;28;20045;-70
2021/12/24 21:52:40;;;;;;;22.85;12.65;;;;;;;7.91;100.00;99338.28;20864174;28;20049;-70
2021/12/24 22:02:44;;;;;;;20.23;11.65;;;;;;;7.88;100.00;99322.72;20888149;22;20053;-73
2021/12/24 22:12:47;;;;;;;23.00;13.30;;;;;;;7.82;100.00;99325.47;20858393;28;20132;-71
2021/12/24 22:22:48;;;;;;;19.67;12.25;;;;;;;7.74;100.00;99323.91;20862464;28;20194;-72
2021/12/24 22:32:52;;;;;;;22.67;13.35;;;;;;;7.68;100.00;99338.78;20860799;28;20064;-72
2021/12/24 22:42:54;;;;;;;24.10;15.00;;;;;;;7.73;100.00;99333.47;20860053;28;20056;-72
2021/12/24 22:52:56;;;;;;;19.58;12.35;;;;;;;7.76;100.00;99337.75;20856828;28;20057;-72
2021/12/24 23:02:57;;;;;;;17.80;11.07;;;;;;;7.81;100.00;99308.13;20859736;28;20045;-72
2021/12/24 23:12:59;;;;;;;17.70;10.63;;;;;;;7.79;100.00;99309.88;20864915;28;20053;-72
2021/12/24 23:23:00;;;;;;;19.80;11.40;;;;;;;7.76;100.00;99301.25;20863080;28;20410;-72
2021/12/24 23:33:02;;;;;;;24.30;13.23;;;;;;;7.69;100.00;99305.75;20862186;28;20049;-72
2021/12/24 23:43:15;;;;;;;23.50;13.30;;;;;;;7.64;100.00;99305.00;20861434;28;20049;-72
2021/12/24 23:53:26;;;;;;;20.35;12.32;;;;;;;7.62;100.00;99294.63;20858182;28;20497;-72
